Tiempo atmosférico en la estación meteorológica de Sant Hilari, Girona (810 m.)



Fecha
DESCASC
Temp. máxima en grados centígrados (hora)
DESCASC
Temp. mínima en grados centígrados (hora)
DESCASC
Temp. media en grados centígrados
DESCASC
Racha de viento máxima en m/sg (hora)
DESCASC
Velocidad máxima media en intervalos de 10 minutos(hora)
DESCASC
Precipitaciones diarias en mm
DESCASC
Precipitaciones de 00:00 a 06:00 en mm
DESCASC
Precipitaciones de 06:00 a 12:00 en mm
DESCASC
Precipitaciones de 12:00 a 18:00 en mm
DESCASC
Precipitaciones de 18:00 a 24:00 en mm
DESCASC
23-06-2019 -- (--) -- (--) -- -- (--) -- (--) -- 0 0 -- --
22-06-2019 25 (14:40) 11.4 (05:00) 18.2 9.17 (14:10) 3.61 (14:10) 0 0 0 0 0
21-06-2019 22.6 (14:10) 11.4 (06:40) 17 8.89 (12:50) 5 (12:50) 0 0 0 0 0
20-06-2019 26.9 (14:10) 14.1 (00:00) 20.5 8.33 (13:00) 4.44 (17:30) 0 0 0 0 0
19-06-2019 -- (--) -- (--) -- -- (--) -- (--) -- 0 -- 0 0
18-06-2019 29.9 (16:10) 11.7 (00:00) 20.8 9.17 (20:00) 5 (08:20) 0 0 0 0 0
17-06-2019 26.4 (17:30) 9.6 (00:00) 18 7.5 (15:50) 4.72 (14:10) 0 0 0 0 0
16-06-2019 24.8 (17:30) 9.8 (00:00) 17.3 6.94 (13:40) 3.61 (13:40) 0 0 0 0 0
15-06-2019 22.1 (13:40) 9.4 (00:00) 15.8 6.39 (16:00) 3.33 (19:20) 0 0 0 0 0
14-06-2019 24 (17:50) 8.1 (00:00) 16.1 11.39 (11:50) 4.72 (08:10) 0.2 0.2 0 0 0
13-06-2019 21.9 (15:10) 5.3 (00:00) 13.6 7.5 (15:50) 5 (15:50) 0 0 0 0 0
12-06-2019 19.2 (17:20) 4.3 (00:00) 11.8 8.61 (14:00) 4.17 (13:50) 0 0 0 0 0
11-06-2019 12.2 (01:00) 6.2 (00:00) 9.2 6.39 (06:20) 4.17 (06:20) 23 0.6 8 10.6 3.8
10-06-2019 23.8 (14:30) 10.4 (00:00) 17.1 7.78 (18:30) 5 (18:10) 0 0 0 0 0
09-06-2019 20.6 (13:00) 8.9 (00:00) 14.8 7.22 (14:10) 3.61 (18:30) 0 0 0 0 0
08-06-2019 23 (14:30) 5.3 (00:00) 14.2 5.83 (10:20) 3.61 (11:00) 0 0 0 0 0
07-06-2019 23.1 (16:00) 8.3 (00:00) 15.7 11.67 (13:10) 5.56 (12:40) 0 0 0 0 0
06-06-2019 19.9 (13:10) 8.6 (00:00) 14.3 10 (17:20) 6.11 (15:50) 0 0 0 0 0
05-06-2019 22.4 (14:20) 7.6 (00:00) 15 13.89 (16:50) 7.78 (16:50) 0 0 0 0 0
04-06-2019 27.1 (16:30) 11.4 (00:00) 19.3 10.56 (00:30) 6.67 (00:10) 0 0 0 0 0
03-06-2019 27.3 (16:30) 15.8 (00:00) 21.5 10 (23:59) 6.39 (23:59) 0 0 0 0 0
02-06-2019 27.8 (17:20) 12.5 (00:00) 20.1 8.33 (06:50) 4.72 (07:00) 0 0 0 0 0
01-06-2019 24.6 (17:20) 8.3 (00:00) 16.5 7.5 (16:20) 5 (16:20) 0 0 0 0 0
31-05-2019 23 (14:20) 8.3 (00:00) 15.7 6.67 (11:20) 4.17 (11:20) 0 0 0 0 0
30-05-2019 20.6 (17:10) 5.6 (00:00) 13.1 6.94 (18:00) 3.61 (17:50) 0 0 0 0 0
29-05-2019 17.1 (15:40) 6.6 (00:00) 11.9 5.83 (08:40) 3.61 (16:20) 0.2 0.2 0 0 0
28-05-2019 15.2 (11:50) 8.3 (00:00) 11.8 4.72 (23:50) 2.78 (19:40) 20.6 0 0 0.2 20.4

Gráficas

Temp. máximas Temp. mínimas Temp. medias Precipitaciones Rachas de viento máximas Velocidades máximas media en intervalos de 10 minutos

Datos horarios

Fecha y hora oficial Temperatura (ºC) Velocidad del viento (km/h) Dirección del viento Racha (km/h) Dirección de racha Precipitación (mm) Presión (hPa) Tendencia (hPa) Humedad (%)
2019-06-26 23:00:00 18.5 0 Calma 4 Norte 0 -- -- 57
2019-06-26 22:00:00 20.6 2 Norte 4 Noroeste 0 -- -- 57
2019-06-26 21:00:00 25.5 0 Calma 9 Sur 0 -- -- 50
2019-06-26 20:00:00 30 5 Sur 13 Sudoeste 0 -- -- 31
2019-06-26 19:00:00 32.1 5 Sur 11 Sudeste 0 -- -- 28
2019-06-26 18:00:00 32.9 5 Sudeste 14 Sur 0 -- -- 28
2019-06-26 17:00:00 33.2 6 Sur 18 Sur 0 -- -- 29
2019-06-26 16:00:00 33.7 5 Este 21 Sur 0 -- -- 31
2019-06-26 15:00:00 32.8 6 Sudeste 17 Sur 0 -- -- 29
2019-06-26 14:00:00 31.9 5 Este 19 Sudeste 0 -- -- 30
2019-06-26 13:00:00 31.6 4 Sudeste 16 Sur 0 -- -- 30
2019-06-26 12:00:00 30.5 5 Sudeste 16 Sur 0 -- -- 29
2019-06-26 11:00:00 26.5 4 Nordeste 14 Nordeste 0 -- -- 46
2019-06-26 10:00:00 22.7 2 Noroeste 14 Este 0 -- -- 53
2019-06-26 09:00:00 17.8 2 Noroeste 5 Noroeste 0 -- -- 79
2019-06-26 08:00:00 14.1 0 Calma 5 Norte 0 -- -- 86
2019-06-26 07:00:00 12.7 0 Calma 4 Norte 0 -- -- 82
2019-06-26 06:00:00 12.7 0 Calma 6 Sur 0 -- -- 79
2019-06-26 05:00:00 13.3 2 Nordeste 4 Nordeste 0 -- -- 76
2019-06-26 04:00:00 13.5 0 Calma 2 Norte 0 -- -- 77
2019-06-26 03:00:00 14.2 0 Calma 3 Sudoeste 0 -- -- 77
2019-06-26 02:00:00 15.1 0 Calma 3 Sudoeste 0 -- -- 75
2019-06-26 01:00:00 15.6 0 Calma 3 Sudoeste 0 -- -- 75
2019-06-26 00:00:00 16.4 0 Calma 4 Oeste 0 -- -- 76
2019-06-25 23:00:00 17.4 0 Calma 5 Este 0 -- -- 79
2019-06-25 22:00:00 18.9 2 Este 7 Norte 0 -- -- 75
2019-06-25 21:00:00 21.3 3 Norte 8 Sudeste 0 -- -- 71
2019-06-25 20:00:00 23.8 3 Sudeste 9 Este 0 -- -- 64
2019-06-25 19:00:00 26.7 4 Este 13 Este 0 -- -- 55
2019-06-25 18:00:00 27.8 5 Sudeste 15 Este 0 -- -- 49
2019-06-25 17:00:00 28.8 6 Sudeste 17 Este 0 -- -- 45
2019-06-25 16:00:00 29.9 6 Sudeste 19 Sur 0 -- -- 39
2019-06-25 15:00:00 29.5 6 Sudeste 22 Sur 0 -- -- 39
2019-06-25 14:00:00 28.6 5 Sudeste 16 Sur 0 -- -- 40
2019-06-25 13:00:00 27 6 Este 23 Este 0 -- -- 44
2019-06-25 12:00:00 25 5 Sudeste 15 Sur 0 -- -- 46
2019-06-25 11:00:00 22.8 5 Este 21 Sur 0 -- -- 56
2019-06-25 10:00:00 20.6 4 Sudeste 13 Sur 0 -- -- 65
2019-06-25 09:00:00 17.6 4 Sudeste 12 Sudoeste 0 -- -- 82
2019-06-25 08:00:00 14.1 0 Calma 3 Norte 0 -- -- 97
2019-06-25 07:00:00 12.3 0 Calma 4 Norte 0 -- -- 96
2019-06-25 06:00:00 12 3 Norte 4 Noroeste 0 -- -- 95
2019-06-25 05:00:00 12.1 3 Norte 5 Noroeste 0 -- -- 95
2019-06-25 04:00:00 12.1 2 Norte 5 Norte 0 -- -- 93
2019-06-25 03:00:00 12.6 3 Norte 4 Norte 0 -- -- 92
2019-06-25 02:00:00 13.5 3 Noroeste 7 Norte 0 -- -- 88
2019-06-25 01:00:00 15.4 2 Este 9 Sudeste 0 -- -- 81
2019-06-25 00:00:00 15.1 2 Sudeste 4 Sur 0 -- -- 73
2019-06-24 23:00:00 16.3 0 Calma 3 Sudeste 0 -- -- 71
2019-06-24 22:00:00 17.8 0 Calma 4 Nordeste 0 -- -- 72
2019-06-24 21:00:00 20.6 2 Este 6 Sudeste 0 -- -- 60
2019-06-24 20:00:00 24.4 2 Sudeste 12 Sudeste 0 -- -- 45
2019-06-24 19:00:00 25.7 4 Sudeste 18 Sudeste 0 -- -- 33
2019-06-24 18:00:00 28.6 5 Sudeste 14 Este 0 -- -- 26
2019-06-24 17:00:00 29.2 5 Sudeste 16 Sur 0 -- -- 25
2019-06-24 16:00:00 28.6 6 Sudeste 21 Sur 0 -- -- 32
2019-06-24 15:00:00 27.9 6 Sudeste 20 Este 0 -- -- 33
2019-06-24 14:00:00 27.6 5 Sur 16 Sudeste 0 -- -- 45
2019-06-24 13:00:00 26.6 5 Este 17 Sudeste 0 -- -- 42
2019-06-24 12:00:00 25.8 5 Este 14 Este 0 -- -- 38
2019-06-24 11:00:00 24.3 4 Este 12 Este 0 -- -- 41
2019-06-24 10:00:00 21.2 3 Este 10 Este 0 -- -- 42
2019-06-24 09:00:00 16.1 0 Calma 4 Noroeste 0 -- -- 88
2019-06-24 08:00:00 13.5 3 Norte 6 Norte 0 -- -- 95
2019-06-24 07:00:00 12.8 4 Norte 5 Noroeste 0 -- -- 96
2019-06-24 06:00:00 13.6 3 Noroeste 6 Norte 0 -- -- 96
2019-06-24 05:00:00 13.6 4 Noroeste 6 Noroeste 0 -- -- 96
2019-06-24 04:00:00 14.2 2 Norte 4 Noroeste 0 -- -- 95
2019-06-24 03:00:00 14.9 0 Calma 3 Norte 0 -- -- 94
2019-06-24 02:00:00 15.2 2 Norte 3 Norte 0 -- -- 93
2019-06-24 01:00:00 15.5 0 Calma 5 Norte 0 -- -- 89
2019-06-24 00:00:00 16.1 0 Calma 6 Norte 0 -- -- 86
2019-06-23 23:00:00 17.2 3 Noroeste 6 Norte 0 -- -- 82
2019-06-23 22:00:00 19.5 2 Noroeste 4 Nordeste 0 -- -- 72
2019-06-23 21:00:00 22.2 0 Calma 9 Este 0 -- -- 61
2019-06-23 20:00:00 26.1 3 Nordeste 15 Este 0 -- -- 51
2019-06-23 19:00:00 29.5 5 Este 14 Este 0 -- -- 45
2019-06-23 18:00:00 31.3 5 Nordeste 19 Oeste 0 -- -- 39
2019-06-23 17:00:00 -- -- -- -- -- -- -- -- --
2019-06-23 16:00:00 -- -- -- -- -- -- -- -- --
2019-06-23 15:00:00 29.9 11 Noroeste 29 Norte 0 -- -- 39
2019-06-23 14:00:00 28.7 17 Norte 26 Norte 0 -- -- 39
2019-06-23 13:00:00 27.5 11 Noroeste 26 Noroeste 0 -- -- 40
2019-06-23 12:00:00 25.7 11 Norte 30 Noroeste 0 -- -- 45
2019-06-23 11:00:00 24.6 9 Oeste 25 Oeste 0 -- -- 46
2019-06-23 10:00:00 21.7 10 Oeste 21 Noroeste 0 -- -- 51
2019-06-23 09:00:00 16.9 6 Noroeste 15 Oeste 0 -- -- 72
2019-06-23 08:00:00 15.2 3 Noroeste 6 Noroeste 0 -- -- 79
2019-06-23 07:00:00 15.1 4 Noroeste 14 Norte 0 -- -- 80
2019-06-23 06:00:00 15.6 10 Norte 15 Norte 0 -- -- 77
2019-06-23 05:00:00 13.5 10 Noroeste 16 Noroeste 0 -- -- 85
2019-06-23 04:00:00 12.5 6 Norte 10 Norte 0 -- -- 95
2019-06-23 03:00:00 12.7 2 Sur 9 Norte 0 -- -- 94
2019-06-23 02:00:00 13.1 3 Norte 13 Norte 0 -- -- 94
2019-06-23 01:00:00 12.6 2 Noroeste 6 Norte 0 -- -- 94
2019-06-23 00:00:00 13.3 3 Norte 4 Norte 0 -- -- 93
2019-06-22 23:00:00 14.4 3 Norte 8 Norte 0 -- -- 90
2019-06-22 22:00:00 16.2 0 Calma 8 Nordeste 0 -- -- 83
2019-06-22 21:00:00 19.1 3 Nordeste 8 Este 0 -- -- 74
2019-06-22 20:00:00 21.2 5 Este 11 Nordeste 0 -- -- 67
2019-06-22 19:00:00 22.7 4 Este 13 Este 0 -- -- 61
2019-06-22 18:00:00 24.1 5 Este 15 Sudeste 0 -- -- 57
2019-06-22 17:00:00 23.3 5 Este 19 Este 0 -- -- 60
2019-06-22 16:00:00 24.2 6 Este 22 Nordeste 0 -- -- 59
2019-06-22 15:00:00 23.9 4 Sudeste 33 Norte 0 -- -- 56
2019-06-22 14:00:00 24 8 Norte 15 Norte 0 -- -- 46
2019-06-22 13:00:00 23.5 4 Este 15 Sur 0 -- -- 55
2019-06-22 12:00:00 21.8 9 Sur 18 Sur 0 -- -- 59
2019-06-22 11:00:00 20 4 Este 16 Sudoeste 0 -- -- 74
2019-06-22 10:00:00 17.7 6 Sur 11 Norte 0 -- -- 80
2019-06-22 09:00:00 14.9 8 Norte 20 Noroeste 0 -- -- 85
2019-06-22 08:00:00 13.4 9 Noroeste 17 Noroeste 0 -- -- 96
2019-06-22 07:00:00 12.8 2 Norte 11 Oeste 0 -- -- 98
2019-06-22 06:00:00 11.7 3 Noroeste 5 Noroeste 0 -- -- 97
2019-06-22 05:00:00 11.4 3 Norte 6 Norte 0 -- -- 97
2019-06-22 04:00:00 11.9 3 Noroeste 5 Norte 0 -- -- 97
2019-06-22 03:00:00 12.1 2 Noroeste 4 Noroeste 0 -- -- 97
2019-06-22 02:00:00 12.3 3 Norte 6 Noroeste 0 -- -- 96
2019-06-22 01:00:00 12.8 0 Calma 5 Norte 0 -- -- 94
2019-06-22 00:00:00 13.5 0 Calma 5 Norte 0 -- -- 92
2019-06-21 23:00:00 14.8 0 Calma 5 Norte 0 -- -- 90
2019-06-21 22:00:00 16.7 3 Norte 5 Noroeste 0 -- -- 84
2019-06-21 21:00:00 19.1 3 Sudeste 8 Sur 0 -- -- 76
2019-06-21 20:00:00 20.6 6 Sur 13 Sur 0 -- -- 70
2019-06-21 19:00:00 21.3 2 Oeste 9 Sur 0 -- -- 63
2019-06-21 18:00:00 19.9 3 Norte 7 Sur 0 -- -- 71
2019-06-21 17:00:00 20.4 2 Oeste 11 Oeste 0 -- -- 72
2019-06-21 16:00:00 19.9 5 Norte 11 Norte 0 -- -- 69
2019-06-21 15:00:00 21.9 4 Sudeste 18 Sur 0 -- -- 59
2019-06-21 14:00:00 22.1 5 Sudeste 19 Sudoeste 0 -- -- 55
2019-06-21 13:00:00 18.5 11 Noroeste 32 Norte 0 -- -- 67
2019-06-21 12:00:00 21.9 5 Este 16 Norte 0 -- -- 56
2019-06-21 11:00:00 21.4 5 Sur 13 Nordeste 0 -- -- 56
2019-06-21 10:00:00 18.2 4 Nordeste 11 Norte 0 -- -- 68
2019-06-21 09:00:00 15.3 6 Norte 11 Norte 0 -- -- 87
2019-06-21 08:00:00 12.5 0 Calma 5 Nordeste 0 -- -- 95
2019-06-21 07:00:00 11.7 0 Calma 0 Calma 0 -- -- 95
2019-06-21 06:00:00 11.9 0 Calma 3 Sur 0 -- -- 91
2019-06-21 05:00:00 12.7 0 Calma 3 Sur 0 -- -- 88
2019-06-21 04:00:00 13.1 0 Calma 3 Sur 0 -- -- 86
2019-06-21 03:00:00 13.9 0 Calma 4 Sudoeste 0 -- -- 83
2019-06-21 02:00:00 13.8 2 Norte 7 Norte 0 -- -- 84
2019-06-21 01:00:00 14.3 3 Norte 10 Nordeste 0 -- -- 83
2019-06-21 00:00:00 15.2 6 Norte 14 Noroeste 0 -- -- 80
2019-06-20 23:00:00 14.7 5 Norte 11 Nordeste 0 -- -- 80
2019-06-20 22:00:00 16.3 2 Norte 10 Este 0 -- -- 71
2019-06-20 21:00:00 17.7 3 Norte 12 Nordeste 0 -- -- 69
2019-06-20 20:00:00 20.1 3 Norte 14 Nordeste 0 -- -- 62
2019-06-20 19:00:00 22.1 4 Sudeste 21 Sur 0 -- -- 57
2019-06-20 18:00:00 20.9 15 Sur 27 Sur 0 -- -- 59
2019-06-20 17:00:00 23.6 13 Sur 26 Sur 0 -- -- 56
2019-06-20 16:00:00 26.2 6 Sudeste 18 Sudeste 0 -- -- 51
2019-06-20 15:00:00 25.8 5 Sudeste 17 Sur 0 -- -- 50
2019-06-20 14:00:00 26.8 4 Norte 21 Este 0 -- -- 48
2019-06-20 13:00:00 24.7 7 Nordeste 30 Nordeste 0 -- -- 52
2019-06-20 12:00:00 23.4 7 Nordeste 18 Este 0 -- -- 58
2019-06-20 11:00:00 21.7 4 Nordeste 14 Este 0 -- -- 67
2019-06-20 10:00:00 19.6 3 Norte 13 Nordeste 0 -- -- 75
2019-06-20 09:00:00 17.4 0 Calma 0 Calma 0 -- -- 81
2019-06-20 08:00:00 14.9 0 Calma 0 Calma 0 -- -- 90
2019-06-20 07:00:00 14.7 0 Calma 0 Calma 0 -- -- 89
2019-06-20 06:00:00 14.2 0 Calma 0 Calma 0 -- -- 90
2019-06-20 05:00:00 14.6 0 Calma 0 Calma 0 -- -- 90
2019-06-20 04:00:00 14.5 0 Calma 3 Norte 0 -- -- 90
2019-06-20 03:00:00 14.7 0 Calma 4 Sur 0 -- -- 89
2019-06-20 02:00:00 14.3 0 Calma 4 Sur 0 -- -- 91
2019-06-20 01:00:00 14.1 0 Calma 5 Noroeste 0 -- -- 93
2019-06-20 00:00:00 14.3 3 Noroeste 6 Noroeste 0 -- -- 91
2019-06-19 23:00:00 15.5 3 Norte 6 Noroeste 0 -- -- 88
2019-06-19 22:00:00 17.4 3 Norte 12 Norte 0 -- -- 82
2019-06-19 21:00:00 20.4 3 Nordeste 8 Nordeste 0 -- -- 71
2019-06-19 20:00:00 22.6 3 Este 10 Nordeste 0 -- -- 63
2019-06-19 19:00:00 25.3 3 Nordeste 14 Nordeste 0 -- -- 54
2019-06-19 18:00:00 25.9 4 Sudeste 20 Sur 0 -- -- 53
2019-06-19 17:00:00 26 14 Sur 24 Sur 0 -- -- 53
2019-06-19 16:00:00 26.8 9 Sur 22 Sur 0 -- -- 48
2019-06-19 15:00:00 27.3 13 Sur 23 Sur 0 -- -- 39
2019-06-19 14:00:00 27.4 10 Sur 19 Sur 0 -- -- 35
2019-06-19 13:00:00 26.1 6 Sur 17 Sur 0 -- -- 34
2019-06-19 12:00:00 -- -- -- -- -- -- -- -- --
2019-06-19 11:00:00 22.8 4 Este 13 Norte 0 -- -- 42
2019-06-19 10:00:00 19.6 10 Norte 30 Norte 0 -- -- 42
2019-06-19 09:00:00 17.1 17 Norte 30 Noroeste 0 -- -- 43
2019-06-19 08:00:00 16.6 15 Noroeste 37 Noroeste 0 -- -- 44
2019-06-19 07:00:00 16.6 18 Noroeste 41 Noroeste 0 -- -- 42
2019-06-19 06:00:00 16.8 20 Noroeste 36 Norte 0 -- -- 37
2019-06-19 05:00:00 16.8 13 Noroeste 29 Oeste 0 -- -- 38
2019-06-19 04:00:00 16.7 14 Noroeste 32 Oeste 0 -- -- 37
2019-06-19 03:00:00 16.8 11 Noroeste 28 Noroeste 0 -- -- 34
2019-06-19 02:00:00 16.4 13 Noroeste 26 Noroeste 0 -- -- 31
2019-06-19 01:00:00 16.9 12 Norte 23 Norte 0 -- -- 35
2019-06-19 00:00:00 16.8 8 Norte 19 Noroeste 0 -- -- 37
2019-06-18 23:00:00 17 10 Noroeste 21 Oeste 0 -- -- 38
2019-06-18 22:00:00 18.8 4 Noroeste 24 Sudoeste 0 -- -- 41
2019-06-18 21:00:00 21.8 15 Sudoeste 30 Sudoeste 0 -- -- 31
2019-06-18 20:00:00 23.1 17 Sudoeste 33 Oeste 0 -- -- 33
2019-06-18 19:00:00 25.7 15 Sudoeste 26 Sudoeste 0 -- -- 31
2019-06-18 18:00:00 28.2 13 Sudoeste 21 Sudoeste 0 -- -- 30
2019-06-18 17:00:00 28.4 10 Sur 22 Oeste 0 -- -- 33
2019-06-18 16:00:00 29.6 9 Oeste 24 Noroeste 0 -- -- 29
2019-06-18 15:00:00 28.9 14 Noroeste 28 Oeste 0 -- -- 31
2019-06-18 14:00:00 28.1 13 Sur 22 Sur 0 -- -- 29
2019-06-18 13:00:00 27.4 7 Sur 21 Norte 0 -- -- 35
2019-06-18 12:00:00 24.4 14 Norte 25 Norte 0 -- -- 39
2019-06-18 11:00:00 23.4 9 Norte 29 Noroeste 0 -- -- 36
2019-06-18 10:00:00 20.2 13 Noroeste 27 Norte 0 -- -- 44
2019-06-18 09:00:00 20 18 Norte 28 Norte 0 -- -- 38
2019-06-18 08:00:00 17.5 17 Norte 24 Norte 0 -- -- 42
2019-06-18 07:00:00 17.5 15 Norte 26 Norte 0 -- -- 40
2019-06-18 06:00:00 17.1 14 Norte 22 Norte 0 -- -- 42
2019-06-18 05:00:00 16.5 12 Norte 23 Noroeste 0 -- -- 46
2019-06-18 04:00:00 16.7 15 Norte 26 Noroeste 0 -- -- 63
2019-06-18 03:00:00 16.7 14 Norte 26 Norte 0 -- -- 56
2019-06-18 02:00:00 15.8 11 Norte 22 Norte 0 -- -- 67
2019-06-18 01:00:00 11.8 3 Norte 8 Norte 0 -- -- 88
2019-06-18 00:00:00 12.8 4 Noroeste 8 Noroeste 0 -- -- 83
2019-06-17 23:00:00 13.6 3 Norte 6 Noroeste 0 -- -- 85
2019-06-17 22:00:00 16.2 4 Noroeste 6 Noroeste 0 -- -- 77
2019-06-17 21:00:00 20.3 2 Nordeste 7 Este 0 -- -- 61
2019-06-17 20:00:00 23 3 Este 10 Este 0 -- -- 51
2019-06-17 19:00:00 25.7 4 Sur 17 Sudoeste 0 -- -- 38
2019-06-17 18:00:00 25.4 14 Sur 27 Sur 0 -- -- 38
2019-06-17 17:00:00 26.2 11 Sur 26 Sur 0 -- -- 36
2019-06-17 16:00:00 26.1 12 Sur 27 Sur 0 -- -- 38
2019-06-17 15:00:00 25.5 11 Sur 26 Sur 0 -- -- 43
2019-06-17 14:00:00 25.1 15 Sur 24 Sudoeste 0 -- -- 45
2019-06-17 13:00:00 25.3 9 Sur 20 Sudeste 0 -- -- 47
2019-06-17 12:00:00 24.8 5 Sudeste 15 Este 0 -- -- 49
2019-06-17 11:00:00 21.9 4 Sur 9 Sudeste 0 -- -- 60
2019-06-17 10:00:00 17.8 2 Sudeste 9 Sur 0 -- -- 65
2019-06-17 09:00:00 14.5 4 Sur 8 Sur 0 -- -- 85
2019-06-17 08:00:00 11 0 Calma 4 Norte 0 -- -- 97
2019-06-17 07:00:00 9.7 3 Noroeste 4 Noroeste 0 -- -- 97
2019-06-17 06:00:00 9.7 3 Noroeste 4 Norte 0 -- -- 97
2019-06-17 05:00:00 9.9 3 Noroeste 6 Noroeste 0 -- -- 97
2019-06-17 04:00:00 10.4 3 Norte 5 Noroeste 0 -- -- 96
2019-06-17 03:00:00 10.5 3 Norte 6 Noroeste 0 -- -- 95
2019-06-17 02:00:00 11 3 Norte 5 Noroeste 0 -- -- 95
2019-06-17 01:00:00 11.7 3 Norte 5 Noroeste 0 -- -- 95
2019-06-17 00:00:00 12.6 2 Norte 5 Norte 0 -- -- 93
2019-06-16 23:00:00 13.8 2 Norte 5 Norte 0 -- -- 90
2019-06-16 22:00:00 15.6 3 Norte 6 Noroeste 0 -- -- 85
2019-06-16 21:00:00 17.9 0 Calma 8 Nordeste 0 -- -- 77
2019-06-16 20:00:00 19.9 3 Nordeste 9 Sur 0 -- -- 70
2019-06-16 19:00:00 22.2 3 Sudeste 17 Sur 0 -- -- 61
2019-06-16 18:00:00 24.2 5 Sudeste 17 Sur 0 -- -- 54
2019-06-16 17:00:00 24.3 5 Sudeste 18 Sur 0 -- -- 54
2019-06-16 16:00:00 24.2 5 Sudeste 14 Este 0 -- -- 59
2019-06-16 15:00:00 23.4 5 Este 15 Sur 0 -- -- 62
2019-06-16 14:00:00 23.4 8 Oeste 25 Sudoeste 0 -- -- 51
2019-06-16 13:00:00 21.6 7 Sur 22 Noroeste 0 -- -- 50
2019-06-16 12:00:00 19 6 Noroeste 16 Nordeste 0 -- -- 65
2019-06-16 11:00:00 17.8 3 Sur 12 Sur 0 -- -- 77
2019-06-16 10:00:00 15.5 0 Calma 6 Noroeste 0 -- -- 89
2019-06-16 09:00:00 13.5 0 Calma 12 Norte 0 -- -- 93
2019-06-16 08:00:00 12.1 5 Norte 11 Norte 0 -- -- 97
2019-06-16 07:00:00 11.2 6 Norte 10 Norte 0 -- -- 98
2019-06-16 06:00:00 11.6 6 Noroeste 16 Noroeste 0 -- -- 98
2019-06-16 05:00:00 11.7 10 Noroeste 17 Noroeste 0 -- -- 98
2019-06-16 04:00:00 11.1 5 Noroeste 10 Norte 0 -- -- 98
2019-06-16 03:00:00 9.8 3 Norte 8 Norte 0 -- -- 96
2019-06-16 02:00:00 10.4 3 Norte 5 Norte 0 -- -- 96
2019-06-16 01:00:00 10.7 3 Norte 4 Norte 0 -- -- 95
2019-06-16 00:00:00 11.7 3 Norte 6 Norte 0 -- -- 94
2019-06-15 23:00:00 12.9 0 Calma 6 Sudoeste 0 -- -- 91
2019-06-15 22:00:00 14 3 Sudoeste 8 Sur 0 -- -- 88
2019-06-15 21:00:00 15.1 7 Sur 13 Sur 0 -- -- 85
2019-06-15 20:00:00 15.8 8 Sur 16 Sur 0 -- -- 83
2019-06-15 19:00:00 17.3 4 Sur 12 Sur 0 -- -- 79
2019-06-15 18:00:00 18.1 3 Este 11 Sur 0 -- -- 79
2019-06-15 17:00:00 20.6 4 Este 15 Sur 0 -- -- 71
2019-06-15 16:00:00 21.1 9 Sur 23 Sur 0 -- -- 69
2019-06-15 15:00:00 21.2 6 Sudeste 14 Este 0 -- -- 69
2019-06-15 14:00:00 20.7 5 Este 17 Sudoeste 0 -- -- 68
2019-06-15 13:00:00 20.9 4 Sudeste 16 Nordeste 0 -- -- 69
2019-06-15 12:00:00 19.4 6 Sudeste 15 Este 0 -- -- 73
2019-06-15 11:00:00 19.1 4 Nordeste 12 Sur 0 -- -- 75
2019-06-15 10:00:00 16.3 3 Sudeste 10 Este 0 -- -- 86
2019-06-15 09:00:00 13.4 3 Sudeste 8 Este 0 -- -- 98
2019-06-15 08:00:00 11.3 0 Calma 4 Noroeste 0 -- -- 99
2019-06-15 07:00:00 9.7 0 Calma 5 Noroeste 0 -- -- 97
2019-06-15 06:00:00 9.4 3 Norte 9 Este 0 -- -- 97
2019-06-15 05:00:00 9.8 4 Norte 9 Noroeste 0 -- -- 97
2019-06-15 04:00:00 10.3 4 Noroeste 5 Noroeste 0 -- -- 97
2019-06-15 03:00:00 10.4 2 Noroeste 5 Norte 0 -- -- 96
2019-06-15 02:00:00 10.8 0 Calma 5 Norte 0 -- -- 95
2019-06-15 01:00:00 11.3 3 Noroeste 4 Noroeste 0 -- -- 93
2019-06-15 00:00:00 12.1 3 Norte 5 Norte 0 -- -- 92
2019-06-14 23:00:00 13.3 3 Norte 8 Norte 0 -- -- 86
2019-06-14 22:00:00 16.4 0 Calma 7 Noroeste 0 -- -- 72
2019-06-14 21:00:00 19.8 6 Noroeste 17 Norte 0 -- -- 57
2019-06-14 20:00:00 22.1 10 Noroeste 24 Oeste 0 -- -- 50
2019-06-14 19:00:00 23.5 14 Oeste 30 Oeste 0 -- -- 47
2019-06-14 18:00:00 23.8 13 Noroeste 32 Sudoeste 0 -- -- 49
2019-06-14 17:00:00 22.2 6 Sur 19 Sur 0 -- -- 59
2019-06-14 16:00:00 21.5 16 Sur 29 Sur 0 -- -- 60
2019-06-14 15:00:00 21.7 5 Nordeste 18 Nordeste 0 -- -- 58
2019-06-14 14:00:00 20.5 5 Sudoeste 15 Norte 0 -- -- 58
2019-06-14 13:00:00 18.5 9 Norte 24 Este 0 -- -- 64
2019-06-14 12:00:00 16.8 9 Norte 41 Noroeste 0 -- -- 71
2019-06-14 11:00:00 16.8 6 Norte 36 Noroeste 0 -- -- 71
2019-06-14 10:00:00 15.6 10 Nordeste 31 Nordeste 0 -- -- 74
2019-06-14 09:00:00 14.8 8 Nordeste 33 Norte 0 -- -- 77
2019-06-14 08:00:00 13.9 13 Norte 29 Nordeste 0 -- -- 74
2019-06-14 07:00:00 13.8 9 Norte 24 Nordeste 0 -- -- 69
2019-06-14 06:00:00 12.3 3 Este 15 Nordeste 0 -- -- 74
2019-06-14 05:00:00 10.4 4 Norte 17 Nordeste 0.2 -- -- 81
2019-06-14 04:00:00 8.8 2 Oeste 7 Noroeste 0 -- -- 79
2019-06-14 03:00:00 8.2 3 Norte 5 Noroeste 0 -- -- 82
2019-06-14 02:00:00 8.2 2 Noroeste 4 Noroeste 0 -- -- 79
2019-06-14 01:00:00 9 0 Calma 4 Norte 0 -- -- 73
2019-06-14 00:00:00 9.4 0 Calma 5 Nordeste 0 -- -- 72
2019-06-13 23:00:00 10.6 0 Calma 4 Norte 0 -- -- 65
2019-06-13 22:00:00 12.2 5 Norte 7 Norte 0 -- -- 62
2019-06-13 21:00:00 14.5 4 Este 8 Nordeste 0 -- -- 49
2019-06-13 20:00:00 17 4 Este 10 Este 0 -- -- 49
2019-06-13 19:00:00 18.9 4 Sudeste 12 Sur 0 -- -- 45
2019-06-13 18:00:00 19.8 6 Sur 15 Sur 0 -- -- 47
2019-06-13 17:00:00 18.6 9 Sur 20 Sur 0 -- -- 49
2019-06-13 16:00:00 19.7 13 Sur 27 Sur 0 -- -- 48
2019-06-13 15:00:00 21.8 6 Sudeste 22 Sur 0 -- -- 49
2019-06-13 14:00:00 21.4 7 Sur 18 Sur 0 -- -- 45
2019-06-13 13:00:00 20.3 8 Sur 18 Sur 0 -- -- 40
2019-06-13 12:00:00 19.5 5 Sur 14 Sur 0 -- -- 40
2019-06-13 11:00:00 16.9 8 Sur 16 Sur 0 -- -- 63
2019-06-13 10:00:00 13.2 3 Nordeste 11 Sur 0 -- -- 78
2019-06-13 09:00:00 9.8 3 Noroeste 5 Noroeste 0 -- -- 99
2019-06-13 08:00:00 7.1 2 Norte 6 Noroeste 0 -- -- 99
2019-06-13 07:00:00 5.6 4 Norte 6 Noroeste 0 -- -- 98
2019-06-13 06:00:00 5.9 5 Norte 7 Norte 0 -- -- 98
2019-06-13 05:00:00 6.3 4 Noroeste 6 Norte 0 -- -- 97
2019-06-13 04:00:00 6.1 3 Noroeste 6 Noroeste 0 -- -- 97
2019-06-13 03:00:00 5.7 2 Norte 5 Noroeste 0 -- -- 96
2019-06-13 02:00:00 6.5 3 Norte 5 Norte 0 -- -- 96
2019-06-13 01:00:00 6.8 3 Norte 5 Norte 0 -- -- 95
2019-06-13 00:00:00 7.8 4 Norte 9 Noroeste 0 -- -- 94
2019-06-12 23:00:00 8.7 0 Calma 9 Norte 0 -- -- 89
2019-06-12 22:00:00 10.3 3 Noroeste 6 Norte 0 -- -- 82
2019-06-12 21:00:00 14 2 Sudeste 14 Sur 0 -- -- 69
2019-06-12 20:00:00 17.8 8 Oeste 22 Noroeste 0 -- -- 45
2019-06-12 19:00:00 18.6 10 Noroeste 28 Noroeste 0 -- -- 43
2019-06-12 18:00:00 18.9 13 Noroeste 27 Noroeste 0 -- -- 42
2019-06-12 17:00:00 18.8 12 Oeste 31 Norte 0 -- -- 46
2019-06-12 16:00:00 18.8 11 Oeste 31 Oeste 0 -- -- 48
2019-06-12 15:00:00 17.9 13 Noroeste 28 Noroeste 0 -- -- 44
2019-06-12 14:00:00 16.6 13 Noroeste 31 Norte 0 -- -- 53
2019-06-12 13:00:00 15.7 13 Noroeste 26 Oeste 0 -- -- 62
2019-06-12 12:00:00 11.9 10 Norte 18 Norte 0 -- -- 79
2019-06-12 11:00:00 12.9 5 Noroeste 12 Sur 0 -- -- 82
2019-06-12 10:00:00 9.8 5 Sur 10 Sur 0 -- -- 98
2019-06-12 09:00:00 7.5 2 Oeste 8 Norte 0 -- -- 100
2019-06-12 08:00:00 6.6 7 Norte 18 Norte 0 -- -- 100
2019-06-12 07:00:00 6.3 10 Norte 20 Noroeste 0 -- -- 99
2019-06-12 06:00:00 6.2 12 Noroeste 21 Noroeste 0 -- -- 100
2019-06-12 05:00:00 5.5 5 Norte 9 Norte 0 -- -- 99
2019-06-12 04:00:00 5.5 4 Noroeste 12 Noroeste 0 -- -- 98
2019-06-12 03:00:00 5.7 6 Norte 14 Norte 0 -- -- 99
2019-06-12 02:00:00 4.4 4 Norte 6 Noroeste 0 -- -- 98
2019-06-12 01:00:00 5.3 4 Norte 8 Norte 0 -- -- 98
2019-06-12 00:00:00 6.2 4 Noroeste 8 Norte 0 -- -- 97
2019-06-11 23:00:00 7.4 6 Norte 12 Norte 0 -- -- 97
2019-06-11 22:00:00 7.6 0 Calma 7 Nordeste 0 -- -- 97
2019-06-11 21:00:00 7.7 5 Norte 9 Norte 1 -- -- 97
2019-06-11 20:00:00 8.3 4 Norte 7 Norte 0.6 -- -- 97
2019-06-11 19:00:00 8.4 2 Oeste 8 Noroeste 2.2 -- -- 96
2019-06-11 18:00:00 8.7 3 Nordeste 8 Nordeste 2.4 -- -- 97
2019-06-11 17:00:00 8.8 5 Este 13 Nordeste 1.6 -- -- 96
2019-06-11 16:00:00 9.3 3 Este 9 Nordeste 1.4 -- -- 97
2019-06-11 15:00:00 9.7 4 Nordeste 13 Noroeste 2.2 -- -- 97
2019-06-11 14:00:00 9.2 5 Norte 13 Noroeste 1.8 -- -- 97
2019-06-11 13:00:00 8.9 4 Norte 15 Noroeste 1.2 -- -- 97
2019-06-11 12:00:00 8.9 8 Norte 13 Norte 3.2 -- -- 96
2019-06-11 11:00:00 9.3 3 Noroeste 9 Sur 3.6 -- -- 95
2019-06-11 10:00:00 9.4 3 Sur 12 Norte 0.8 -- -- 92
2019-06-11 09:00:00 9.1 7 Noroeste 17 Norte 0 -- -- 89
2019-06-11 08:00:00 8.9 9 Noroeste 23 Noroeste 0.4 -- -- 90
2019-06-11 07:00:00 9.3 10 Norte 23 Norte 0 -- -- 88
2019-06-11 06:00:00 11.3 3 Sur 12 Sur 0.6 -- -- 95
2019-06-11 05:00:00 11.6 4 Norte 11 Sur 0 -- -- 96
2019-06-11 04:00:00 11.3 2 Norte 14 Sudeste 0 -- -- 94
2019-06-11 03:00:00 11.6 6 Sur 14 Sur 0 -- -- 93
2019-06-11 02:00:00 11.4 0 Calma 16 Sur 0 -- -- 92
2019-06-11 01:00:00 12.2 7 Sur 19 Sur 0 -- -- 88
2019-06-11 00:00:00 11.9 5 Sur 13 Sur 0 -- -- 92
2019-06-10 23:00:00 11.5 2 Sur 7 Este 0 -- -- 91
2019-06-10 22:00:00 12.2 3 Nordeste 10 Este 0 -- -- 90
2019-06-10 21:00:00 13.7 3 Este 12 Este 0 -- -- 83
2019-06-10 20:00:00 16.2 5 Este 17 Nordeste 0 -- -- 72
2019-06-10 19:00:00 21.1 6 Sudeste 28 Sur 0 -- -- 55
2019-06-10 18:00:00 22.4 11 Sur 25 Sudeste 0 -- -- 45
2019-06-10 17:00:00 20.3 8 Sudeste 22 Sur 0 -- -- 54
2019-06-10 16:00:00 19.8 6 Este 18 Este 0 -- -- 60
2019-06-10 15:00:00 22 5 Sudeste 18 Sur 0 -- -- 49
2019-06-10 14:00:00 23 5 Sudeste 20 Sur 0 -- -- 44
2019-06-10 13:00:00 20.6 5 Sur 23 Sur 0 -- -- 59
2019-06-10 12:00:00 21.4 5 Sudeste 13 Este 0 -- -- 56
2019-06-10 11:00:00 18.6 4 Norte 21 Norte 0 -- -- 66
2019-06-10 10:00:00 18 4 Sur 11 Sur 0 -- -- 59
2019-06-10 09:00:00 15.1 4 Norte 8 Norte 0 -- -- 78
2019-06-10 08:00:00 11 3 Norte 7 Norte 0 -- -- 93
2019-06-10 07:00:00 10.8 0 Calma 5 Norte 0 -- -- 88
2019-06-10 06:00:00 10.6 3 Norte 5 Noroeste 0 -- -- 86
2019-06-10 05:00:00 11.9 0 Calma 8 Norte 0 -- -- 82
2019-06-10 04:00:00 13 6 Norte 13 Norte 0 -- -- 78
2019-06-10 03:00:00 12.5 7 Norte 13 Norte 0 -- -- 80
2019-06-10 02:00:00 12.4 4 Noroeste 10 Norte 0 -- -- 81
2019-06-10 01:00:00 13.1 6 Noroeste 11 Norte 0 -- -- 80
2019-06-10 00:00:00 14.1 6 Norte 13 Noroeste 0 -- -- 74
2019-06-09 23:00:00 14.3 0 Calma 9 Norte 0 -- -- 71
2019-06-09 22:00:00 15.5 4 Norte 17 Sur 0 -- -- 70
2019-06-09 21:00:00 16.5 0 Calma 7 Sudoeste 0 -- -- 70
2019-06-09 20:00:00 16.7 2 Noroeste 11 Norte 0 -- -- 67
2019-06-09 19:00:00 17.2 4 Norte 20 Noroeste 0 -- -- 64
2019-06-09 18:00:00 18.5 4 Este 11 Este 0 -- -- 61
2019-06-09 17:00:00 19.5 5 Norte 21 Noroeste 0 -- -- 41
2019-06-09 16:00:00 19.7 9 Norte 20 Noroeste 0 -- -- 39
2019-06-09 15:00:00 19.7 5 Norte 26 Noroeste 0 -- -- 33
2019-06-09 14:00:00 19.2 12 Norte 25 Noroeste 0 -- -- 34
2019-06-09 13:00:00 20.6 5 Norte 18 Noroeste 0 -- -- 35
2019-06-09 12:00:00 18.5 6 Norte 20 Nordeste 0 -- -- 39
2019-06-09 11:00:00 16.7 5 Norte 15 Norte 0 -- -- 45
2019-06-09 10:00:00 15.9 3 Este 9 Nordeste 0 -- -- 67
2019-06-09 09:00:00 12.9 0 Calma 4 Noroeste 0 -- -- 75
2019-06-09 08:00:00 11.3 2 Norte 6 Noroeste 0 -- -- 79
2019-06-09 07:00:00 10.4 4 Noroeste 7 Norte 0 -- -- 76
2019-06-09 06:00:00 9.7 3 Noroeste 6 Norte 0 -- -- 76
2019-06-09 05:00:00 10 3 Norte 7 Norte 0 -- -- 78
2019-06-09 04:00:00 10.1 3 Norte 6 Norte 0 -- -- 70
2019-06-09 03:00:00 9.9 2 Norte 5 Norte 0 -- -- 74
2019-06-09 02:00:00 9.1 0 Calma 4 Noroeste 0 -- -- 72
2019-06-09 01:00:00 8.9 2 Norte 4 Noroeste 0 -- -- 69
2019-06-09 00:00:00 9.2 3 Norte 5 Noroeste 0 -- -- 65
2019-06-08 23:00:00 10.4 3 Noroeste 6 Norte 0 -- -- 63
2019-06-08 22:00:00 12.4 3 Norte 5 Norte 0 -- -- 55
2019-06-08 21:00:00 15.7 3 Este 8 Sur 0 -- -- 40
2019-06-08 20:00:00 18.8 3 Este 11 Sudoeste 0 -- -- 34
2019-06-08 19:00:00 21.1 4 Este 13 Sudeste 0 -- -- 32
2019-06-08 18:00:00 22 5 Sudeste 21 Sudeste 0 -- -- 32
2019-06-08 17:00:00 22.3 5 Sudeste 17 Este 0 -- -- 35
2019-06-08 16:00:00 22.1 5 Sudeste 20 Sudeste 0 -- -- 39
2019-06-08 15:00:00 22.3 6 Sudeste 20 Sudeste 0 -- -- 40
2019-06-08 14:00:00 21.7 5 Este 15 Sudeste 0 -- -- 43
2019-06-08 13:00:00 20.3 6 Sur 16 Sur 0 -- -- 44
2019-06-08 12:00:00 18.7 5 Este 15 Sur 0 -- -- 51
2019-06-08 11:00:00 17.2 13 Sur 21 Sur 0 -- -- 57
2019-06-08 10:00:00 14.7 4 Norte 12 Nordeste 0 -- -- 62
2019-06-08 09:00:00 11.4 5 Norte 12 Norte 0 -- -- 74
2019-06-08 08:00:00 7.5 3 Noroeste 9 Noroeste 0 -- -- 95
2019-06-08 07:00:00 5.3 2 Noroeste 5 Norte 0 -- -- 96
2019-06-08 06:00:00 5.5 2 Norte 4 Noroeste 0 -- -- 96
2019-06-08 05:00:00 5.6 3 Norte 5 Norte 0 -- -- 95
2019-06-08 04:00:00 6.1 3 Norte 5 Norte 0 -- -- 94
2019-06-08 03:00:00 6.5 3 Norte 5 Noroeste 0 -- -- 94
2019-06-08 02:00:00 6.8 3 Norte 5 Norte 0 -- -- 92
2019-06-08 01:00:00 7.4 3 Norte 7 Nordeste 0 -- -- 89
2019-06-08 00:00:00 8.3 0 Calma 4 Nordeste 0 -- -- 86
2019-06-07 23:00:00 9.8 3 Noroeste 6 Noroeste 0 -- -- 78
2019-06-07 22:00:00 12.3 2 Nordeste 10 Este 0 -- -- 66
2019-06-07 21:00:00 15.1 4 Este 18 Este 0 -- -- 57
2019-06-07 20:00:00 20.1 5 Este 19 Oeste 0 -- -- 54
2019-06-07 19:00:00 22.1 10 Oeste 26 Oeste 0 -- -- 20
2019-06-07 18:00:00 22.3 14 Noroeste 33 Oeste 0 -- -- 29
2019-06-07 17:00:00 22.9 15 Noroeste 34 Noroeste 0 -- -- 33
2019-06-07 16:00:00 23.1 15 Noroeste 41 Sudoeste 0 -- -- 44
2019-06-07 15:00:00 22.5 16 Oeste 40 Noroeste 0 -- -- 46
2019-06-07 14:00:00 22.5 19 Oeste 42 Noroeste 0 -- -- 45
2019-06-07 13:00:00 20.8 19 Oeste 35 Sudoeste 0 -- -- 53
2019-06-07 12:00:00 19.8 17 Oeste 37 Sudoeste 0 -- -- 55
2019-06-07 11:00:00 18.3 14 Sudoeste 31 Sudoeste 0 -- -- 59
2019-06-07 10:00:00 15.5 12 Sur 28 Sur 0 -- -- 72
2019-06-07 09:00:00 14.1 9 Sudoeste 20 Sudoeste 0 -- -- 75
2019-06-07 08:00:00 13.3 12 Sudoeste 25 Sudoeste 0 -- -- 73
2019-06-07 07:00:00 11 6 Oeste 24 Sur 0 -- -- 86
2019-06-07 06:00:00 10.4 3 Sur 7 Noroeste 0 -- -- 96
2019-06-07 05:00:00 9.9 2 Noroeste 6 Norte 0 -- -- 94
2019-06-07 04:00:00 9.7 4 Norte 6 Nordeste 0 -- -- 93
2019-06-07 03:00:00 10.2 3 Norte 13 Noroeste 0 -- -- 91
2019-06-07 02:00:00 10.6 0 Calma 21 Sur 0 -- -- 89
2019-06-07 01:00:00 11.8 10 Sur 20 Sur 0 -- -- 81
2019-06-07 00:00:00 12.3 11 Sur 26 Sur 0 -- -- 68
2019-06-06 23:00:00 12.1 11 Sur 22 Sur 0 -- -- 65
2019-06-06 22:00:00 12.6 8 Sudoeste 19 Sur 0 -- -- 60
2019-06-06 21:00:00 13.4 12 Sur 24 Sur 0 -- -- 78
2019-06-06 20:00:00 15.5 11 Sur 23 Sur 0 -- -- 68
2019-06-06 19:00:00 16.8 16 Sur 31 Sur 0 -- -- 59
2019-06-06 18:00:00 16.7 19 Sur 36 Sur 0 -- -- 57
2019-06-06 17:00:00 18.5 16 Sur 33 Sur 0 -- -- 58
2019-06-06 16:00:00 19 15 Sudoeste 34 Sur 0 -- -- 50
2019-06-06 15:00:00 17.7 16 Sur 30 Sur 0 -- -- 62
2019-06-06 14:00:00 18.1 8 Sudoeste 28 Sur 0 -- -- 61
2019-06-06 13:00:00 19.4 7 Sudoeste 25 Sudoeste 0 -- -- 50
2019-06-06 12:00:00 16.9 12 Norte 26 Noroeste 0 -- -- 53
2019-06-06 11:00:00 16.6 7 Noroeste 19 Noroeste 0 -- -- 54
2019-06-06 10:00:00 13.6 6 Noroeste 20 Noroeste 0 -- -- 69
2019-06-06 09:00:00 11 12 Noroeste 33 Noroeste 0 -- -- 75
2019-06-06 08:00:00 9.8 19 Noroeste 30 Noroeste 0 -- -- 78
2019-06-06 07:00:00 8.9 16 Noroeste 29 Noroeste 0 -- -- 84
2019-06-06 06:00:00 8.8 9 Noroeste 21 Oeste 0 -- -- 87
2019-06-06 05:00:00 9.1 6 Noroeste 17 Norte 0 -- -- 87
2019-06-06 04:00:00 9.1 6 Noroeste 15 Oeste 0 -- -- 87
2019-06-06 03:00:00 8.8 3 Nordeste 7 Norte 0 -- -- 89
2019-06-06 02:00:00 10.6 2 Noroeste 11 Sudoeste 0 -- -- 83
2019-06-06 01:00:00 11.5 4 Sudoeste 10 Sudoeste 0 -- -- 82
2019-06-06 00:00:00 11.1 5 Sudoeste 12 Sudoeste 0 -- -- 83
2019-06-05 23:00:00 11.3 3 Sur 9 Sur 0 -- -- 79
2019-06-05 22:00:00 12 3 Sur 6 Sur 0 -- -- 78
2019-06-05 21:00:00 12.4 2 Nordeste 12 Este 0 -- -- 78
2019-06-05 20:00:00 14.8 4 Este 17 Este 0 -- -- 69
2019-06-05 19:00:00 17 6 Oeste 30 Norte 0 -- -- 56
2019-06-05 18:00:00 20.4 19 Noroeste 47 Oeste 0 -- -- 47
2019-06-05 17:00:00 19.3 24 Noroeste 50 Noroeste 0 -- -- 52
2019-06-05 16:00:00 20.8 25 Noroeste 42 Noroeste 0 -- -- 57
2019-06-05 15:00:00 21.7 6 Sur 23 Sur 0 -- -- 51
2019-06-05 14:00:00 21.8 10 Sur 27 Sur 0 -- -- 54
2019-06-05 13:00:00 21.5 14 Sur 25 Sudeste 0 -- -- 47
2019-06-05 12:00:00 21 8 Sudeste 20 Sur 0 -- -- 47
2019-06-05 11:00:00 18.8 4 Sudeste 13 Este 0 -- -- 68
2019-06-05 10:00:00 16.8 3 Este 9 Sudeste 0 -- -- 66
2019-06-05 09:00:00 13 3 Sudeste 6 Este 0 -- -- 79
2019-06-05 08:00:00 9.3 2 Norte 4 Norte 0 -- -- 84
2019-06-05 07:00:00 7.7 0 Calma 4 Norte 0 -- -- 85
2019-06-05 06:00:00 7.7 0 Calma 4 Nordeste 0 -- -- 79
2019-06-05 05:00:00 7.8 3 Norte 6 Noroeste 0 -- -- 76
2019-06-05 04:00:00 8.6 4 Norte 6 Norte 0 -- -- 81
2019-06-05 03:00:00 9.6 4 Norte 7 Noroeste 0 -- -- 78
2019-06-05 02:00:00 10.1 4 Norte 10 Norte 0 -- -- 74
2019-06-05 01:00:00 10.6 4 Norte 9 Nordeste 0 -- -- 68
2019-06-05 00:00:00 11.4 3 Norte 7 Nordeste 0 -- -- 57
2019-06-04 23:00:00 13.8 4 Norte 8 Nordeste 0 -- -- 49
2019-06-04 22:00:00 17.1 3 Norte 17 Sudoeste 0 -- -- 31
2019-06-04 21:00:00 19.5 3 Sur 15 Sur 0 -- -- 37
2019-06-04 20:00:00 22.4 9 Sur 19 Sur 0 -- -- 37
2019-06-04 19:00:00 24.9 5 Sudeste 18 Sur 0 -- -- 38
2019-06-04 18:00:00 25.6 10 Sur 22 Sur 0 -- -- 36
2019-06-04 17:00:00 26.9 6 Sur 19 Sur 0 -- -- 33
2019-06-04 16:00:00 26.1 9 Sur 26 Sur 0 -- -- 35
2019-06-04 15:00:00 26 10 Sur 22 Sur 0 -- -- 35
2019-06-04 14:00:00 26.1 8 Sur 19 Sur 0 -- -- 34
2019-06-04 13:00:00 24.6 11 Sur 18 Sur 0 -- -- 32
2019-06-04 12:00:00 24.5 6 Sur 22 Norte 0 -- -- 36
2019-06-04 11:00:00 22.3 12 Norte 18 Norte 0 -- -- 34
2019-06-04 10:00:00 20.2 7 Noroeste 22 Norte 0 -- -- 41
2019-06-04 09:00:00 17.8 12 Norte 20 Noroeste 0 -- -- 36
2019-06-04 08:00:00 15.5 4 Norte 12 Noroeste 0 -- -- 43
2019-06-04 07:00:00 16 7 Noroeste 28 Oeste 0 -- -- 34
2019-06-04 06:00:00 16.2 10 Noroeste 24 Noroeste 0 -- -- 37
2019-06-04 05:00:00 15.3 5 Noroeste 17 Norte 0 -- -- 38
2019-06-04 04:00:00 16.2 13 Norte 26 Norte 0 -- -- 39
2019-06-04 03:00:00 16.4 17 Norte 33 Noroeste 0 -- -- 37
2019-06-04 02:00:00 16.7 18 Norte 26 Noroeste 0 -- -- 35
2019-06-04 01:00:00 17.5 16 Norte 38 Noroeste 0 -- -- 31
2019-06-04 00:00:00 18.1 23 Norte 36 Norte 0 -- -- 30
2019-06-03 23:00:00 18.3 13 Noroeste 25 Noroeste 0 -- -- 32
2019-06-03 22:00:00 19 12 Norte 19 Noroeste 0 -- -- 33
2019-06-03 21:00:00 20.1 8 Noroeste 24 Oeste 0 -- -- 36
2019-06-03 20:00:00 23.4 12 Sudoeste 23 Sudoeste 0 -- -- 29
2019-06-03 19:00:00 23.6 7 Noroeste 18 Noroeste 0 -- -- 35
2019-06-03 18:00:00 25.6 9 Oeste 24 Norte 0 -- -- 29
2019-06-03 17:00:00 26.6 5 Sur 24 Sur 0 -- -- 29
2019-06-03 16:00:00 26.7 11 Sur 26 Norte 0 -- -- 30
2019-06-03 15:00:00 24.8 16 Noroeste 30 Norte 0 -- -- 30
2019-06-03 14:00:00 25.4 13 Noroeste 23 Noroeste 0 -- -- 34
2019-06-03 13:00:00 24.8 13 Norte 22 Noroeste 0 -- -- 38
2019-06-03 12:00:00 24.1 8 Noroeste 18 Noroeste 0 -- -- 40
2019-06-03 11:00:00 23 5 Sur 10 Sur 0 -- -- 44
2019-06-03 10:00:00 20.4 5 Sur 20 Norte 0 -- -- 43
2019-06-03 09:00:00 18.1 12 Norte 23 Norte 0 -- -- 40
2019-06-03 08:00:00 16.1 5 Norte 26 Norte 0 -- -- 46
2019-06-03 07:00:00 16.3 19 Norte 31 Noroeste 0 -- -- 36
2019-06-03 06:00:00 16.5 18 Norte 25 Norte 0 -- -- 32
2019-06-03 05:00:00 16.3 15 Norte 23 Norte 0 -- -- 34
2019-06-03 04:00:00 15.9 10 Norte 32 Noroeste 0 -- -- 41
2019-06-03 03:00:00 16.7 19 Noroeste 32 Noroeste 0 -- -- 40
2019-06-03 02:00:00 17.2 20 Noroeste 30 Noroeste 0 -- -- 38
2019-06-03 01:00:00 17.6 16 Norte 27 Noroeste 0 -- -- 39
2019-06-03 00:00:00 17.9 13 Noroeste 23 Norte 0 -- -- 38
2019-06-02 23:00:00 18.5 12 Norte 24 Norte 0 -- -- 40
2019-06-02 22:00:00 18.3 13 Noroeste 20 Noroeste 0 -- -- 52
2019-06-02 21:00:00 19.6 3 Norte 8 Norte 0 -- -- 65
2019-06-02 20:00:00 22 3 Noroeste 6 Nordeste 0 -- -- 58
2019-06-02 19:00:00 24.2 2 Este 10 Este 0 -- -- 45
2019-06-02 18:00:00 27.3 4 Este 10 Sudeste 0 -- -- 38
2019-06-02 17:00:00 27.4 5 Este 15 Este 0 -- -- 42
2019-06-02 16:00:00 27.3 4 Sudeste 13 Este 0 -- -- 41
2019-06-02 15:00:00 26.5 7 Sudoeste 19 Norte 0 -- -- 45
2019-06-02 14:00:00 25.9 7 Sur 18 Sudoeste 0 -- -- 42
2019-06-02 13:00:00 24.8 6 Sur 17 Sur 0 -- -- 45
2019-06-02 12:00:00 24.7 5 Norte 20 Norte 0 -- -- 51
2019-06-02 11:00:00 22.1 10 Norte 23 Norte 0 -- -- 46
2019-06-02 10:00:00 20.3 11 Norte 17 Norte 0 -- -- 48
2019-06-02 09:00:00 17.7 9 Norte 19 Norte 0 -- -- 52
2019-06-02 08:00:00 15.6 11 Norte 23 Noroeste 0 -- -- 54
2019-06-02 07:00:00 15 17 Norte 30 Norte 0 -- -- 54
2019-06-02 06:00:00 14.7 11 Norte 21 Norte 0 -- -- 55
2019-06-02 05:00:00 14.4 10 Norte 19 Noroeste 0 -- -- 57
2019-06-02 04:00:00 14.1 6 Norte 15 Norte 0 -- -- 58
2019-06-02 03:00:00 15 6 Norte 26 Noroeste 0 -- -- 56
2019-06-02 02:00:00 15.5 12 Norte 23 Norte 0 -- -- 55
2019-06-02 01:00:00 14.9 14 Norte 24 Noroeste 0 -- -- 63
2019-06-02 00:00:00 12.5 4 Norte 11 Norte 0 -- -- 84
2019-06-01 23:00:00 13.6 4 Noroeste 5 Norte 0 -- -- 81
2019-06-01 22:00:00 15.7 0 Calma 3 Norte 0 -- -- 73
2019-06-01 21:00:00 19.2 0 Calma 8 Sur 0 -- -- 60
2019-06-01 20:00:00 21.9 5 Sur 10 Sur 0 -- -- 46
2019-06-01 19:00:00 23.8 3 Este 16 Sur 0 -- -- 46
2019-06-01 18:00:00 23.8 8 Sur 20 Sur 0 -- -- 44
2019-06-01 17:00:00 23.9 9 Sur 27 Sudoeste 0 -- -- 45
2019-06-01 16:00:00 24.3 12 Sur 23 Sur 0 -- -- 40
2019-06-01 15:00:00 24.1 10 Sur 23 Sudoeste 0 -- -- 41
2019-06-01 14:00:00 24 9 Sur 19 Sur 0 -- -- 40
2019-06-01 13:00:00 22.9 12 Sur 21 Sur 0 -- -- 46
2019-06-01 12:00:00 22.5 5 Sur 13 Sur 0 -- -- 51
2019-06-01 11:00:00 21 8 Sur 13 Sur 0 -- -- 49
2019-06-01 10:00:00 17.9 3 Sudeste 10 Este 0 -- -- 58
2019-06-01 09:00:00 13.2 0 Calma 2 Norte 0 -- -- 76
2019-06-01 08:00:00 9.8 0 Calma 6 Noroeste 0 -- -- 88
2019-06-01 07:00:00 8.4 2 Noroeste 4 Noroeste 0 -- -- 94
2019-06-01 06:00:00 8.9 4 Noroeste 6 Noroeste 0 -- -- 92
2019-06-01 05:00:00 9.8 4 Noroeste 7 Norte 0 -- -- 90
2019-06-01 04:00:00 9.3 5 Noroeste 8 Noroeste 0 -- -- 93
2019-06-01 03:00:00 11.1 4 Norte 15 Norte 0 -- -- 86
2019-06-01 02:00:00 11.2 7 Norte 15 Noroeste 0 -- -- 88
2019-06-01 01:00:00 11.8 6 Norte 13 Norte 0 -- -- 85
2019-06-01 00:00:00 13.3 6 Norte 14 Norte 0 -- -- 79
2019-05-31 23:00:00 11.9 4 Norte 9 Noroeste 0 -- -- 86
2019-05-31 22:00:00 13.8 3 Norte 5 Noroeste 0 -- -- 79
2019-05-31 21:00:00 17.2 3 Noroeste 10 Este 0 -- -- 63
2019-05-31 20:00:00 20.1 3 Sudeste 9 Sudeste 0 -- -- 52
2019-05-31 19:00:00 21.7 4 Sudeste 12 Este 0 -- -- 49
2019-05-31 18:00:00 22.2 5 Este 17 Sur 0 -- -- 49
2019-05-31 17:00:00 22 8 Sur 22 Sur 0 -- -- 48
2019-05-31 16:00:00 22.3 10 Sur 24 Sur 0 -- -- 48
2019-05-31 15:00:00 22.4 11 Sur 24 Sur 0 -- -- 54
2019-05-31 14:00:00 22.8 5 Sudeste 17 Noroeste 0 -- -- 47
2019-05-31 13:00:00 21.9 5 Nordeste 21 Norte 0 -- -- 48
2019-05-31 12:00:00 20.3 8 Noroeste 24 Norte 0 -- -- 51
2019-05-31 11:00:00 18.3 12 Norte 21 Norte 0 -- -- 53
2019-05-31 10:00:00 16.4 8 Noroeste 21 Norte 0 -- -- 58
2019-05-31 09:00:00 14.2 9 Noroeste 17 Noroeste 0 -- -- 65
2019-05-31 08:00:00 10.1 5 Norte 9 Norte 0 -- -- 84
2019-05-31 07:00:00 8.7 4 Norte 8 Norte 0 -- -- 89
2019-05-31 06:00:00 8.4 4 Norte 8 Norte 0 -- -- 95
2019-05-31 05:00:00 8.4 2 Norte 5 Norte 0 -- -- 96
2019-05-31 04:00:00 8.6 0 Calma 5 Noroeste 0 -- -- 96
2019-05-31 03:00:00 9 3 Norte 5 Norte 0 -- -- 96
2019-05-31 02:00:00 9.5 3 Norte 4 Norte 0 -- -- 95
2019-05-31 01:00:00 9.2 2 Norte 4 Norte 0 -- -- 95
2019-05-31 00:00:00 9.8 2 Norte 4 Nordeste 0 -- -- 93
2019-05-30 23:00:00 10.9 0 Calma 3 Nordeste 0 -- -- 89
2019-05-30 22:00:00 12.3 2 Norte 6 Noroeste 0 -- -- 83
2019-05-30 21:00:00 15.1 3 Noroeste 13 Sur 0 -- -- 74
2019-05-30 20:00:00 17.2 4 Sur 14 Sur 0 -- -- 63
2019-05-30 19:00:00 18.5 7 Sur 19 Sudoeste 0 -- -- 60
2019-05-30 18:00:00 19 13 Sur 25 Sur 0 -- -- 60
2019-05-30 17:00:00 20.4 5 Sudeste 17 Sur 0 -- -- 60
2019-05-30 16:00:00 19.4 7 Sudeste 18 Sur 0 -- -- 60
2019-05-30 15:00:00 19.3 6 Sur 15 Sur 0 -- -- 54
2019-05-30 14:00:00 19.3 5 Sudeste 18 Sur 0 -- -- 57
2019-05-30 13:00:00 18.6 8 Sur 22 Sur 0 -- -- 58
2019-05-30 12:00:00 17.7 8 Sur 18 Sur 0 -- -- 61
2019-05-30 11:00:00 16.3 8 Sur 14 Sur 0 -- -- 64
2019-05-30 10:00:00 13.7 5 Sur 10 Sudeste 0 -- -- 70
2019-05-30 09:00:00 10.1 5 Sur 9 Sur 0 -- -- 78
2019-05-30 08:00:00 7 0 Calma 4 Norte 0 -- -- 95
2019-05-30 07:00:00 5.6 0 Calma 5 Norte 0 -- -- 96
2019-05-30 06:00:00 5.6 2 Norte 7 Noroeste 0 -- -- 95
2019-05-30 05:00:00 6.7 4 Norte 14 Norte 0 -- -- 92
2019-05-30 04:00:00 8.5 9 Norte 14 Norte 0 -- -- 85
2019-05-30 03:00:00 8.8 6 Norte 15 Norte 0 -- -- 90
2019-05-30 02:00:00 8.1 5 Norte 14 Norte 0 -- -- 97
2019-05-30 01:00:00 7.7 2 Norte 5 Norte 0 -- -- 96
2019-05-30 00:00:00 7.9 3 Norte 5 Noroeste 0 -- -- 94
2019-05-29 23:00:00 9.1 4 Norte 7 Norte 0 -- -- 92
2019-05-29 22:00:00 11.1 3 Norte 8 Sur 0 -- -- 85
2019-05-29 21:00:00 13.3 6 Sur 16 Sur 0 -- -- 74
2019-05-29 20:00:00 13.9 10 Sur 18 Sur 0 -- -- 71
2019-05-29 19:00:00 14.9 12 Sur 19 Sur 0 -- -- 68
2019-05-29 18:00:00 15.6 10 Sur 17 Sur 0 -- -- 68
2019-05-29 17:00:00 15.3 7 Sudeste 21 Sur 0 -- -- 73
2019-05-29 16:00:00 16.3 7 Sudeste 18 Sur 0 -- -- 72
2019-05-29 15:00:00 16.8 7 Sudeste 21 Sur 0 -- -- 71
2019-05-29 14:00:00 15 3 Este 15 Sudeste 0 -- -- 75
2019-05-29 13:00:00 15.2 4 Sudeste 14 Este 0 -- -- 68
2019-05-29 12:00:00 14 5 Norte 13 Sur 0 -- -- 54
2019-05-29 11:00:00 12.8 5 Sur 14 Sur 0 -- -- 77
2019-05-29 10:00:00 10.1 3 Nordeste 9 Norte 0 -- -- 97
2019-05-29 09:00:00 8.6 6 Norte 21 Norte 0 -- -- 100
2019-05-29 08:00:00 7.8 6 Noroeste 12 Oeste 0 -- -- 100
2019-05-29 07:00:00 6.6 5 Norte 9 Norte 0 -- -- 99
2019-05-29 06:00:00 7 4 Noroeste 5 Noroeste 0 -- -- 99
2019-05-29 05:00:00 7.8 2 Noroeste 7 Noroeste 0.2 -- -- 99
2019-05-29 04:00:00 8 0 Calma 5 Norte 0 -- -- 99
2019-05-29 03:00:00 8 3 Nordeste 6 Este 0 -- -- 99
2019-05-29 02:00:00 8.7 4 Norte 8 Norte 0 -- -- 98
2019-05-29 01:00:00 9 2 Noroeste 9 Noroeste 0 -- -- 98
2019-05-29 00:00:00 9.3 7 Norte 17 Noroeste 0 -- -- 98
2019-05-28 23:00:00 9.6 4 Norte 9 Norte 5.2 -- -- 98
2019-05-28 22:00:00 9.6 3 Este 10 Sur 3 -- -- 97
2019-05-28 21:00:00 9.9 0 Calma 14 Sur 4.2 -- -- 97
2019-05-28 20:00:00 10.2 8 Sur 15 Sur 1.2 -- -- 96
2019-05-28 19:00:00 10.7 6 Sur 15 Sur 6.8 -- -- 96
2019-05-28 18:00:00 11.5 3 Sudeste 11 Sur 0.2 -- -- 93
2019-05-28 17:00:00 12.6 3 Sudeste 12 Este 0 -- -- 83
2019-05-28 16:00:00 12.7 4 Este 14 Nordeste 0 -- -- 83
2019-05-28 15:00:00 13.7 5 Este 13 Este 0 -- -- 83
2019-05-28 14:00:00 12.9 4 Este 11 Nordeste 0 -- -- 86
2019-05-28 13:00:00 13.5 3 Este 14 Sur 0 -- -- 83
2019-05-28 12:00:00 15.1 7 Sur 15 Sur 0 -- -- 78
2019-05-28 11:00:00 14.6 4 Sudeste 9 Este 0 -- -- 83
2019-05-28 10:00:00 14 3 Este 6 Este 0 -- -- 85
2019-05-28 09:00:00 11.5 0 Calma 4 Este 0 -- -- 97
2019-05-28 08:00:00 10.1 0 Calma 4 Nordeste 0 -- -- 98
2019-05-28 07:00:00 9.5 2 Nordeste 6 Norte 0 -- -- 99
2019-05-28 06:00:00 9.2 4 Noroeste 7 Norte 0 -- -- 98
2019-05-28 05:00:00 8.7 3 Norte 10 Norte 0 -- -- 98
2019-05-28 04:00:00 8.9 3 Norte 10 Norte 0 -- -- 97
2019-05-28 03:00:00 8.4 3 Norte 6 Noroeste 0 -- -- 96
2019-05-28 02:00:00 9.6 3 Norte 5 Norte 0 -- -- 96
2019-05-28 01:00:00 10.8 4 Noroeste 7 Noroeste 0 -- -- 97
2019-05-28 00:00:00 10.9 0 Calma 6 Nordeste 0 -- -- 96